createdAt,value
2022-12-04T00:02:00.644Z,72.60
2022-12-04T00:05:07.167Z,72.50
2022-12-04T00:08:10.350Z,72.70
2022-12-04T00:11:17.474Z,72.70
2022-12-04T00:14:20.460Z,72.60
2022-12-04T00:17:23.577Z,72.60
2022-12-04T00:20:28.069Z,72.60
2022-12-04T00:23:31.230Z,72.50
2022-12-04T00:26:34.904Z,72.60
2022-12-04T00:29:38.469Z,72.50
2022-12-04T00:32:41.484Z,72.40
2022-12-04T00:35:45.898Z,72.50
2022-12-04T00:38:49.818Z,72.40
2022-12-04T00:41:53.012Z,72.40
2022-12-04T00:44:56.231Z,72.40
2022-12-04T00:47:59.222Z,72.30
2022-12-04T00:51:06.083Z,72.40
2022-12-04T00:54:09.178Z,72.10
2022-12-04T00:57:12.160Z,72.30
2022-12-04T01:00:16.049Z,72.20
2022-12-04T01:03:19.141Z,72.00
2022-12-04T01:06:26.448Z,72.10
2022-12-04T01:09:29.579Z,72.10
2022-12-04T01:12:33.017Z,71.90
2022-12-04T01:15:40.364Z,72.00
2022-12-04T01:18:43.369Z,72.10
2022-12-04T01:21:47.660Z,72.00
2022-12-04T01:24:50.638Z,72.00
2022-12-04T01:27:53.558Z,71.90
2022-12-04T01:31:02.156Z,72.00
2022-12-04T01:34:05.663Z,72.00
2022-12-04T01:37:10.070Z,72.00
2022-12-04T01:40:16.133Z,71.30
2022-12-04T01:43:20.953Z,71.90
2022-12-04T01:46:24.019Z,72.10
2022-12-04T01:49:34.958Z,72.00
2022-12-04T01:52:40.241Z,71.90
2022-12-04T01:55:44.911Z,71.90
2022-12-04T01:58:53.344Z,71.80
2022-12-04T02:02:03.457Z,71.70
2022-12-04T02:05:10.996Z,71.90
2022-12-04T02:08:15.466Z,71.70
2022-12-04T02:11:29.845Z,71.80
2022-12-04T02:14:42.277Z,71.90
2022-12-04T02:17:58.243Z,72.30
2022-12-04T02:21:10.594Z,71.90
2022-12-04T02:24:34.972Z,71.90
2022-12-04T02:28:10.736Z,72.20
2022-12-04T02:31:19.996Z,71.90
2022-12-04T02:34:29.279Z,71.70
2022-12-04T02:37:37.889Z,71.70
2022-12-04T02:40:53.385Z,71.50
2022-12-04T02:44:08.716Z,71.60
2022-12-04T02:47:18.123Z,71.60
2022-12-04T02:50:25.452Z,71.80
2022-12-04T02:53:34.725Z,71.60
2022-12-04T02:56:43.611Z,71.60
2022-12-04T02:59:52.794Z,71.60
2022-12-04T03:03:01.806Z,71.70
2022-12-04T03:06:11.735Z,71.70
2022-12-04T03:09:23.007Z,71.70
2022-12-04T03:12:37.927Z,71.70
2022-12-04T03:15:49.287Z,71.50
2022-12-04T03:18:58.908Z,71.60
2022-12-04T03:22:09.237Z,71.60
2022-12-04T03:25:13.825Z,71.60
2022-12-04T03:28:28.834Z,71.70
2022-12-04T03:31:45.563Z,71.70
2022-12-04T03:34:59.112Z,71.70
2022-12-04T03:38:11.000Z,71.80
2022-12-04T03:41:27.079Z,71.70
2022-12-04T03:44:42.180Z,71.90
2022-12-04T03:47:54.677Z,72.00
2022-12-04T03:51:08.375Z,72.00
2022-12-04T03:54:17.678Z,72.00
2022-12-04T03:57:28.386Z,72.00
2022-12-04T04:00:33.902Z,72.10
2022-12-04T04:03:45.336Z,72.10
2022-12-04T04:06:55.483Z,72.10
2022-12-04T04:10:06.587Z,72.20
2022-12-04T04:13:30.743Z,72.60
2022-12-04T04:16:55.580Z,72.20
2022-12-04T04:20:24.759Z,72.10
2022-12-04T04:23:50.718Z,72.00
2022-12-04T04:26:56.263Z,72.00
2022-12-04T04:29:59.819Z,72.00
2022-12-04T04:33:14.461Z,71.90
2022-12-04T04:36:31.354Z,72.10
2022-12-04T04:39:40.776Z,71.80
2022-12-04T04:42:52.677Z,71.80
2022-12-04T04:46:01.359Z,71.70
2022-12-04T04:49:09.827Z,71.60
2022-12-04T04:52:14.330Z,71.60
2022-12-04T04:55:20.428Z,71.70
2022-12-04T04:58:23.625Z,71.60
2022-12-04T05:01:30.403Z,71.60
2022-12-04T05:04:33.527Z,71.50
2022-12-04T05:07:37.923Z,71.40
2022-12-04T05:10:40.934Z,71.60
2022-12-04T05:13:44.233Z,71.50
2022-12-04T05:16:47.235Z,71.40
2022-12-04T05:19:57.407Z,71.30
2022-12-04T05:23:02.171Z,71.40
2022-12-04T05:26:07.059Z,72.30
2022-12-04T05:29:10.109Z,71.70
2022-12-04T05:32:13.181Z,71.80
2022-12-04T05:35:16.236Z,72.00
2022-12-04T05:38:20.565Z,71.90
2022-12-04T05:41:24.446Z,71.90
2022-12-04T05:44:27.516Z,72.50
2022-12-04T05:47:30.567Z,72.00
2022-12-04T05:50:33.616Z,71.90
2022-12-04T05:53:38.223Z,72.00
2022-12-04T05:56:41.119Z,72.00
2022-12-04T05:59:44.151Z,72.10
2022-12-04T06:02:47.209Z,72.10
2022-12-04T06:05:50.355Z,72.00
2022-12-04T06:08:56.942Z,71.90
2022-12-04T06:12:00.363Z,71.90
2022-12-04T06:15:05.247Z,71.80
2022-12-04T06:18:08.996Z,71.70
2022-12-04T06:21:12.745Z,71.70
2022-12-04T06:24:21.579Z,71.70
2022-12-04T06:27:27.700Z,71.70
2022-12-04T06:30:31.352Z,71.90
2022-12-04T06:33:36.063Z,71.60
2022-12-04T06:36:39.192Z,71.90
2022-12-04T06:39:43.700Z,71.60
2022-12-04T06:42:46.657Z,71.60
2022-12-04T06:45:50.039Z,71.20
2022-12-04T06:48:55.331Z,71.60
2022-12-04T06:51:58.458Z,71.90
2022-12-04T06:55:02.853Z,72.10
2022-12-04T06:58:05.886Z,71.40
2022-12-04T07:01:11.538Z,71.40
2022-12-04T07:04:14.628Z,71.30
2022-12-04T07:07:17.693Z,71.30
2022-12-04T07:10:22.005Z,71.30
2022-12-04T07:13:25.032Z,71.50
2022-12-04T07:16:34.074Z,71.40
2022-12-04T07:19:41.663Z,71.30
2022-12-04T07:22:44.717Z,71.30
2022-12-04T07:25:48.991Z,71.30
2022-12-04T07:28:52.751Z,71.30
2022-12-04T07:31:55.888Z,71.40
2022-12-04T07:34:58.893Z,71.30
2022-12-04T07:38:01.941Z,71.30
2022-12-04T07:41:08.279Z,71.30
2022-12-04T07:44:11.251Z,71.20
2022-12-04T07:47:14.648Z,71.20
2022-12-04T07:50:17.872Z,71.20
2022-12-04T07:53:21.045Z,71.20
2022-12-04T07:56:25.646Z,70.80
2022-12-04T07:59:28.658Z,71.20
2022-12-04T08:02:31.573Z,71.30
2022-12-04T08:05:34.576Z,71.20
2022-12-04T08:08:38.011Z,71.10
2022-12-04T08:11:42.482Z,71.10
2022-12-04T08:14:45.472Z,71.10
2022-12-04T08:17:48.521Z,71.00
2022-12-04T08:20:51.510Z,70.50
2022-12-04T08:23:56.989Z,71.00
2022-12-04T08:27:01.283Z,70.90
2022-12-04T08:30:05.920Z,70.90
2022-12-04T08:33:08.859Z,70.40
2022-12-04T08:36:14.880Z,70.90
2022-12-04T08:39:17.891Z,71.00
2022-12-04T08:42:22.294Z,70.80
2022-12-04T08:45:25.262Z,70.90
2022-12-04T08:48:29.270Z,71.10
2022-12-04T08:51:35.668Z,70.90
2022-12-04T08:54:38.701Z,70.90
2022-12-04T08:57:43.115Z,71.00
2022-12-04T09:00:47.617Z,71.00
2022-12-04T09:03:50.769Z,71.00
2022-12-04T09:06:53.813Z,71.00
2022-12-04T09:09:57.380Z,71.00
2022-12-04T09:13:03.330Z,70.80
2022-12-04T09:16:11.322Z,71.10
2022-12-04T09:19:14.549Z,71.10
2022-12-04T09:22:17.509Z,70.70
2022-12-04T09:25:20.547Z,71.40
2022-12-04T09:28:25.169Z,71.40
2022-12-04T09:31:29.006Z,71.50
2022-12-04T09:34:32.101Z,71.40
2022-12-04T09:37:36.542Z,71.30
2022-12-04T09:40:47.931Z,71.50
2022-12-04T09:44:01.731Z,71.70
2022-12-04T09:47:14.705Z,71.70
2022-12-04T09:50:23.994Z,71.70
2022-12-04T09:53:35.437Z,71.80
2022-12-04T09:56:38.638Z,71.90
2022-12-04T09:59:43.086Z,72.40
2022-12-04T10:02:52.293Z,72.00
2022-12-04T10:06:04.899Z,72.20
2022-12-04T10:09:19.988Z,72.30
2022-12-04T10:12:33.048Z,72.40
2022-12-04T10:15:50.363Z,72.10
2022-12-04T10:19:08.293Z,72.60
2022-12-04T10:22:23.694Z,72.60
2022-12-04T10:25:29.916Z,72.90
2022-12-04T10:28:38.980Z,72.70
2022-12-04T10:31:48.188Z,72.70
2022-12-04T10:34:57.320Z,72.80
2022-12-04T10:38:08.183Z,72.80
2022-12-04T10:41:22.431Z,73.10
2022-12-04T10:44:26.281Z,72.90
2022-12-04T10:47:31.251Z,72.80
2022-12-04T10:50:35.123Z,73.00
2022-12-04T10:53:39.301Z,73.10
2022-12-04T10:56:52.290Z,73.50
2022-12-04T10:59:57.839Z,73.40
2022-12-04T11:03:09.658Z,72.70
2022-12-04T11:06:16.094Z,72.90
2022-12-04T11:09:25.857Z,72.80
2022-12-04T11:12:30.956Z,73.00
2022-12-04T11:15:43.167Z,72.40
2022-12-04T11:18:51.500Z,72.90
2022-12-04T11:21:57.998Z,72.90
2022-12-04T11:25:01.402Z,72.80
2022-12-04T11:28:05.920Z,72.50
2022-12-04T11:31:12.358Z,73.00
2022-12-04T11:34:22.091Z,72.60
2022-12-04T11:37:31.453Z,72.60
2022-12-04T11:40:35.638Z,72.60
2022-12-04T11:43:49.170Z,72.60
2022-12-04T11:46:56.283Z,72.70
2022-12-04T11:50:14.634Z,72.40
2022-12-04T11:53:25.466Z,72.40
2022-12-04T11:56:34.464Z,72.40
2022-12-04T12:00:00.970Z,72.40
2022-12-04T12:03:16.685Z,72.40
2022-12-04T12:06:36.344Z,72.90
2022-12-04T12:09:53.273Z,72.60
2022-12-04T12:13:12.033Z,72.50
2022-12-04T12:16:27.698Z,72.00
2022-12-04T12:19:56.860Z,72.40
2022-12-04T12:23:22.622Z,72.60
2022-12-04T12:26:35.246Z,73.10
2022-12-04T12:29:57.218Z,72.50
2022-12-04T12:33:10.384Z,72.30
2022-12-04T12:36:16.075Z,72.40
2022-12-04T12:39:29.510Z,72.40
2022-12-04T12:42:41.241Z,72.40
2022-12-04T12:45:53.788Z,72.40
2022-12-04T12:49:04.927Z,72.40
2022-12-04T12:52:18.439Z,72.60
2022-12-04T12:55:26.825Z,72.70
2022-12-04T12:58:37.938Z,72.70
2022-12-04T13:01:55.932Z,72.80
2022-12-04T13:05:08.567Z,72.90
2022-12-04T13:08:24.999Z,72.90
2022-12-04T13:11:32.580Z,73.00
2022-12-04T13:14:35.729Z,73.00
2022-12-04T13:17:41.009Z,73.60
2022-12-04T13:20:54.822Z,73.00
2022-12-04T13:24:31.624Z,73.10
2022-12-04T13:28:00.167Z,73.00
2022-12-04T13:31:20.132Z,73.00
2022-12-04T13:34:48.291Z,73.00
2022-12-04T13:38:12.690Z,73.20
2022-12-04T13:41:20.986Z,73.10
2022-12-04T13:44:28.176Z,73.10
2022-12-04T13:47:35.585Z,73.60
2022-12-04T13:50:41.246Z,73.10
2022-12-04T13:53:45.242Z,73.30
2022-12-04T13:56:50.836Z,73.00
2022-12-04T14:00:08.091Z,73.80
2022-12-04T14:03:26.687Z,73.00
2022-12-04T14:06:38.140Z,73.00
2022-12-04T14:09:50.091Z,72.80
2022-12-04T14:13:01.342Z,73.20
2022-12-04T14:16:19.668Z,72.90
2022-12-04T14:19:37.007Z,72.90
2022-12-04T14:22:45.416Z,73.10
2022-12-04T14:25:48.549Z,73.10
2022-12-04T14:28:52.651Z,73.00
2022-12-04T14:32:01.192Z,73.10
2022-12-04T14:35:05.058Z,73.20
2022-12-04T14:38:12.536Z,72.80
2022-12-04T14:41:25.012Z,73.00
2022-12-04T14:44:31.576Z,73.00
2022-12-04T14:47:47.163Z,73.10
2022-12-04T14:51:01.496Z,73.20
2022-12-04T14:54:16.664Z,73.20
2022-12-04T14:57:41.325Z,73.30
2022-12-04T15:00:50.997Z,73.90
2022-12-04T15:04:00.983Z,73.60
2022-12-04T15:07:04.068Z,73.30
2022-12-04T15:10:39.700Z,73.50
2022-12-04T15:13:42.954Z,74.10
2022-12-04T15:16:45.909Z,74.30
2022-12-04T15:19:50.430Z,73.90
2022-12-04T15:22:57.370Z,74.20
2022-12-04T15:26:04.478Z,74.20
2022-12-04T15:29:10.483Z,74.20
2022-12-04T15:32:14.081Z,74.30
2022-12-04T15:35:24.995Z,74.20
2022-12-04T15:38:28.743Z,74.40
2022-12-04T15:41:35.159Z,74.20
2022-12-04T15:44:38.282Z,74.20
2022-12-04T15:47:53.579Z,74.20
2022-12-04T15:51:03.026Z,74.50
2022-12-04T15:54:13.198Z,74.40
2022-12-04T15:57:26.314Z,74.20
2022-12-04T16:00:33.969Z,74.40
2022-12-04T16:03:47.718Z,73.90
2022-12-04T16:06:54.597Z,74.30
2022-12-04T16:10:03.769Z,74.30
2022-12-04T16:13:07.470Z,74.30
2022-12-04T16:16:16.136Z,74.20
2022-12-04T16:19:31.541Z,74.30
2022-12-04T16:22:35.812Z,74.30
2022-12-04T16:25:38.834Z,74.20
2022-12-04T16:28:41.921Z,74.10
2022-12-04T16:31:45.214Z,74.10
2022-12-04T16:34:49.445Z,74.60
2022-12-04T16:37:53.954Z,74.10
2022-12-04T16:40:57.074Z,74.50
2022-12-04T16:44:01.860Z,74.00
2022-12-04T16:47:06.670Z,74.00
2022-12-04T16:50:11.758Z,74.10
2022-12-04T16:53:17.941Z,74.10
2022-12-04T16:56:22.322Z,74.20
2022-12-04T16:59:25.449Z,74.10
2022-12-04T17:02:28.769Z,74.20
2022-12-04T17:05:35.801Z,74.00
2022-12-04T17:08:40.261Z,74.00
2022-12-04T17:11:44.288Z,74.10
2022-12-04T17:14:47.252Z,74.00
2022-12-04T17:17:50.867Z,73.90
2022-12-04T17:20:54.129Z,73.90
2022-12-04T17:23:58.659Z,73.90
2022-12-04T17:27:02.311Z,73.90
2022-12-04T17:30:08.712Z,73.90
2022-12-04T17:33:11.865Z,73.90
2022-12-04T17:36:18.488Z,73.80
2022-12-04T17:39:23.328Z,73.80
2022-12-04T17:42:26.463Z,73.90
2022-12-04T17:45:29.616Z,73.80
2022-12-04T17:48:32.589Z,73.90
2022-12-04T17:51:36.068Z,73.80
2022-12-04T17:54:40.496Z,73.70
2022-12-04T17:57:43.612Z,73.60
2022-12-04T18:00:46.773Z,74.20
2022-12-04T18:03:52.621Z,73.60
2022-12-04T18:06:56.396Z,73.60
2022-12-04T18:10:01.092Z,73.60
2022-12-04T18:13:04.085Z,73.60
2022-12-04T18:16:10.201Z,73.60
2022-12-04T18:19:15.087Z,73.60
2022-12-04T18:22:18.197Z,73.70
2022-12-04T18:25:22.588Z,74.20
2022-12-04T18:28:25.652Z,73.60
2022-12-04T18:31:29.172Z,73.60
2022-12-04T18:34:32.246Z,73.50
2022-12-04T18:37:35.324Z,73.60
2022-12-04T18:40:39.626Z,73.60
2022-12-04T18:43:45.787Z,73.50
2022-12-04T18:46:48.887Z,73.40
2022-12-04T18:49:51.949Z,73.40
2022-12-04T18:52:58.952Z,73.30
2022-12-04T18:56:06.027Z,73.20
2022-12-04T18:59:12.952Z,73.10
2022-12-04T19:02:16.081Z,73.00
2022-12-04T19:05:19.447Z,73.00
2022-12-04T19:08:22.488Z,73.00
2022-12-04T19:11:27.034Z,72.40
2022-12-04T19:14:30.753Z,72.90
2022-12-04T19:17:33.911Z,72.50
2022-12-04T19:20:40.438Z,72.70
2022-12-04T19:23:49.817Z,72.90
2022-12-04T19:26:55.622Z,72.80
2022-12-04T19:29:58.936Z,72.80
2022-12-04T19:33:03.397Z,72.80
2022-12-04T19:36:07.841Z,72.80
2022-12-04T19:39:11.292Z,72.80
2022-12-04T19:42:15.835Z,72.80
2022-12-04T19:45:19.067Z,72.80
2022-12-04T19:48:22.068Z,72.70
2022-12-04T19:51:26.290Z,72.70
2022-12-04T19:54:30.226Z,72.70
2022-12-04T19:57:34.982Z,72.70
2022-12-04T20:00:38.343Z,72.70
2022-12-04T20:03:41.599Z,72.70
2022-12-04T20:06:47.535Z,72.70
2022-12-04T20:09:52.552Z,72.70
2022-12-04T20:12:57.278Z,72.60
2022-12-04T20:16:03.156Z,72.70
2022-12-04T20:19:09.724Z,72.60
2022-12-04T20:22:12.721Z,72.60
2022-12-04T20:25:16.033Z,72.70
2022-12-04T20:28:20.585Z,72.70
2022-12-04T20:31:27.476Z,72.60
2022-12-04T20:34:30.652Z,72.70
2022-12-04T20:37:35.794Z,72.70
2022-12-04T20:40:38.852Z,72.70
2022-12-04T20:43:43.956Z,72.70
2022-12-04T20:46:48.259Z,72.70
2022-12-04T20:49:51.312Z,72.70
2022-12-04T20:52:54.443Z,72.40
2022-12-04T20:55:58.161Z,73.20
2022-12-04T20:59:07.634Z,72.60
2022-12-04T21:02:12.591Z,72.70
2022-12-04T21:05:15.764Z,72.70
2022-12-04T21:08:39.073Z,72.70
2022-12-04T21:11:45.596Z,72.80
2022-12-04T21:15:07.921Z,72.90
2022-12-04T21:18:10.974Z,72.40
2022-12-04T21:21:14.521Z,72.70
2022-12-04T21:24:20.562Z,72.70
2022-12-04T21:27:24.976Z,73.00
2022-12-04T21:30:29.651Z,72.70
2022-12-04T21:33:34.173Z,72.80
2022-12-04T21:36:37.215Z,72.80
2022-12-04T21:39:40.237Z,73.30
2022-12-04T21:42:45.398Z,72.70
2022-12-04T21:46:04.373Z,72.80
2022-12-04T21:49:11.715Z,72.90
2022-12-04T21:52:14.646Z,72.90
2022-12-04T21:55:17.846Z,72.90
2022-12-04T21:58:23.891Z,72.70
2022-12-04T22:01:28.870Z,72.80
2022-12-04T22:04:32.182Z,72.80
2022-12-04T22:07:35.264Z,73.40
2022-12-04T22:10:42.739Z,72.80
2022-12-04T22:13:45.974Z,72.90
2022-12-04T22:16:54.137Z,72.80
2022-12-04T22:19:57.525Z,72.80
2022-12-04T22:23:01.147Z,72.80
2022-12-04T22:26:08.833Z,72.90
2022-12-04T22:29:42.007Z,72.90
2022-12-04T22:32:36.746Z,72.70
2022-12-04T22:35:39.710Z,72.80
2022-12-04T22:39:05.904Z,72.80
2022-12-04T22:42:06.476Z,72.70
2022-12-04T22:45:10.904Z,72.70
2022-12-04T22:48:15.615Z,72.70
2022-12-04T22:51:21.545Z,72.70
2022-12-04T22:54:25.625Z,72.80
2022-12-04T22:57:29.543Z,73.00
2022-12-04T23:00:32.891Z,72.60
2022-12-04T23:03:39.583Z,72.60
2022-12-04T23:06:42.625Z,72.60
2022-12-04T23:09:46.253Z,72.60
2022-12-04T23:12:49.735Z,72.60
2022-12-04T23:15:53.205Z,72.40
2022-12-04T23:18:58.842Z,72.30
2022-12-04T23:22:01.929Z,72.00
2022-12-04T23:25:05.838Z,72.20
2022-12-04T23:28:09.194Z,72.70
2022-12-04T23:31:12.759Z,72.20
2022-12-04T23:34:17.088Z,72.10
2022-12-04T23:37:20.095Z,72.00
2022-12-04T23:40:23.244Z,72.00
2022-12-04T23:43:26.391Z,71.90
2022-12-04T23:46:33.002Z,71.90
2022-12-04T23:49:37.495Z,71.80
2022-12-04T23:52:52.869Z,72.10
2022-12-04T23:56:00.757Z,71.80
2022-12-04T23:59:04.246Z,71.80
